Time;durP1;ratioP1;P1;durP2;ratioP2;P2;SDS_P1;SDS_P2;PMS_P1;PMS_P2;Temp;Humidity;BMP_temperature;BMP_pressure;BME280_temperature;BME280_humidity;BME280_pressure;Samples;Min_cycle;Max_cycle;Signal;HPM_P1;HPM_P2
2021/04/04 00:01:54;;;;;;;20.50;11.47;;;;;;;0.84;66.30;99255.70;1745080;80;21160;-59
2021/04/04 00:04:21;;;;;;;18.83;9.87;;;;;;;0.88;66.50;99248.56;1748450;80;21501;-59
2021/04/04 00:06:48;;;;;;;24.57;11.53;;;;;;;0.92;66.43;99254.25;1715865;81;21638;-59
2021/04/04 00:09:19;;;;;;;22.73;11.37;;;;;;;0.92;66.50;99259.10;1720375;81;22173;-59
2021/04/04 00:11:47;;;;;;;25.40;11.37;;;;;;;0.90;66.61;99255.59;1686121;83;21503;-60
2021/04/04 00:14:15;;;;;;;20.23;10.73;;;;;;;0.91;66.67;99253.82;1687467;83;21979;-61
2021/04/04 00:16:44;;;;;;;24.23;11.83;;;;;;;0.97;66.73;99249.73;1719769;81;21232;-61
2021/04/04 00:19:12;;;;;;;18.03;10.23;;;;;;;1.02;66.80;99241.27;1677993;83;21220;-59
2021/04/04 00:21:40;;;;;;;17.93;10.90;;;;;;;1.08;67.00;99250.42;1688917;83;21163;-59
2021/04/04 00:24:10;;;;;;;20.03;9.70;;;;;;;1.08;67.02;99253.95;1717545;81;21184;-59
2021/04/04 00:26:39;;;;;;;19.43;10.20;;;;;;;1.02;67.10;99255.36;1716350;81;21938;-59
2021/04/04 00:29:07;;;;;;;19.20;10.43;;;;;;;1.01;67.22;99256.30;1719265;81;21494;-59
2021/04/04 00:31:35;;;;;;;24.90;10.13;;;;;;;1.04;67.36;99250.91;1725831;81;21588;-59
2021/04/04 00:34:04;;;;;;;17.30;10.33;;;;;;;1.08;67.42;99254.40;1684886;83;21207;-59
2021/04/04 00:36:31;;;;;;;23.37;11.37;;;;;;;1.12;67.40;99254.30;1715479;81;21795;-59
2021/04/04 00:38:59;;;;;;;20.47;10.03;;;;;;;1.12;67.41;99255.63;1686191;83;21219;-59
2021/04/04 00:41:27;;;;;;;19.47;9.53;;;;;;;1.12;67.47;99260.05;1683668;83;22064;-59
2021/04/04 00:43:55;;;;;;;18.80;10.67;;;;;;;1.04;67.62;99263.30;1678106;83;22771;-59
2021/04/04 00:46:23;;;;;;;25.80;13.93;;;;;;;0.97;67.82;99262.53;1721269;81;21116;-59
2021/04/04 00:48:50;;;;;;;38.53;20.13;;;;;;;0.92;67.52;99274.12;1718414;81;21113;-59
2021/04/04 00:51:18;;;;;;;49.00;24.53;;;;;;;0.86;67.53;99275.08;1716674;81;21132;-58
2021/04/04 00:53:46;;;;;;;55.27;26.07;;;;;;;0.84;67.56;99278.68;1719979;81;21543;-59
2021/04/04 00:56:14;;;;;;;72.17;34.33;;;;;;;0.88;67.51;99270.64;1720506;81;22034;-59
2021/04/04 00:58:42;;;;;;;69.30;34.27;;;;;;;0.96;67.79;99269.17;1715629;81;21145;-60
2021/04/04 01:01:10;;;;;;;67.80;33.30;;;;;;;1.05;67.72;99264.59;1716949;81;21128;-59
2021/04/04 01:03:37;;;;;;;60.67;31.17;;;;;;;1.15;67.78;99270.61;1716329;81;21120;-59
2021/04/04 01:06:07;;;;;;;68.97;33.83;;;;;;;1.23;67.84;99267.37;1677879;83;21282;-59
2021/04/04 01:08:35;;;;;;;82.70;37.77;;;;;;;1.31;67.83;99271.20;1739412;80;21506;-59
2021/04/04 01:11:05;;;;;;;86.10;40.80;;;;;;;1.38;67.92;99276.35;1717593;80;21293;-59
2021/04/04 01:13:38;;;;;;;89.70;42.37;;;;;;;1.44;67.95;99270.95;1716372;81;21145;-59
2021/04/04 01:16:18;;;;;;;77.77;39.67;;;;;;;1.45;67.91;99270.02;1716197;81;21192;-59
2021/04/04 01:19:14;;;;;;;61.83;28.90;;;;;;;1.49;67.95;99261.12;1718234;81;21607;-58
2021/04/04 01:21:54;;;;;;;62.57;31.03;;;;;;;1.57;67.92;99271.58;1739401;80;21120;-59
2021/04/04 01:24:57;;;;;;;74.30;36.63;;;;;;;1.59;68.09;99264.92;1738622;80;21151;-58
2021/04/04 01:27:45;;;;;;;81.57;39.87;;;;;;;1.61;68.12;99271.95;1742692;80;21467;-56
2021/04/04 01:30:13;;;;;;;79.77;39.17;;;;;;;1.60;68.16;99275.95;1745115;80;21140;-56
2021/04/04 01:32:41;;;;;;;82.33;38.77;;;;;;;1.60;68.33;99269.33;1738328;80;21774;-56
2021/04/04 01:35:13;;;;;;;73.87;37.10;;;;;;;1.56;68.41;99270.27;1714418;81;21671;-59
2021/04/04 01:37:40;;;;;;;65.90;33.73;;;;;;;1.53;68.43;99276.53;1673736;83;21100;-58
2021/04/04 01:40:11;;;;;;;71.37;34.20;;;;;;;1.48;68.55;99283.23;1717453;81;21167;-57
2021/04/04 01:42:38;;;;;;;67.10;32.03;;;;;;;1.41;68.52;99284.71;1717445;80;21223;-59
2021/04/04 01:45:07;;;;;;;67.00;32.00;;;;;;;1.40;68.85;99278.53;1716633;81;21368;-58
2021/04/04 01:47:35;;;;;;;63.83;31.67;;;;;;;1.43;68.97;99270.98;1741930;80;21139;-58
2021/04/04 01:50:05;;;;;;;58.27;29.30;;;;;;;1.47;69.08;99268.22;1712462;80;21139;-58
2021/04/04 01:52:33;;;;;;;55.33;27.70;;;;;;;1.53;69.19;99269.03;1739971;80;21107;-57
2021/04/04 01:55:01;;;;;;;58.17;28.50;;;;;;;1.56;69.29;99282.21;1742030;80;21112;-56
2021/04/04 01:57:28;;;;;;;49.43;23.57;;;;;;;1.55;69.30;99279.13;1737473;80;21548;-57
2021/04/04 01:59:57;;;;;;;52.40;24.73;;;;;;;1.59;69.59;99279.52;1719861;81;21211;-56
2021/04/04 02:02:25;;;;;;;58.87;27.10;;;;;;;1.61;69.57;99269.75;1718590;81;21705;-55
2021/04/04 02:04:52;;;;;;;43.70;22.37;;;;;;;1.65;69.67;99266.98;1714902;81;21189;-59
2021/04/04 02:07:19;;;;;;;44.53;21.37;;;;;;;1.69;69.91;99270.02;1719521;81;21627;-59
2021/04/04 02:12:25;;;;;;;49.43;24.43;;;;;;;1.85;70.08;99265.27;1861785;74;27623;-56
2021/04/04 02:14:52;;;;;;;48.10;22.77;;;;;;;1.86;70.03;99265.69;1829362;76;21499;-56
2021/04/04 02:17:20;;;;;;;45.93;22.10;;;;;;;1.91;70.00;99269.11;1832438;75;22492;-58
2021/04/04 02:19:48;;;;;;;51.33;22.80;;;;;;;1.92;69.88;99262.89;1829342;75;21201;-57
2021/04/04 02:22:15;;;;;;;46.20;23.70;;;;;;;1.88;69.71;99270.48;1835237;75;21186;-56
2021/04/04 02:24:42;;;;;;;43.43;21.93;;;;;;;1.80;69.65;99275.95;1833001;75;21012;-56
2021/04/04 02:27:10;;;;;;;44.53;22.23;;;;;;;1.73;69.56;99267.70;1796186;77;21167;-56
2021/04/04 02:29:37;;;;;;;43.77;22.30;;;;;;;1.64;69.70;99270.99;1768253;78;20972;-56
2021/04/04 02:32:05;;;;;;;44.80;23.07;;;;;;;1.62;69.82;99264.38;1793374;78;21510;-58
2021/04/04 02:34:36;;;;;;;43.83;22.40;;;;;;;1.62;69.89;99266.16;1756060;78;21183;-58
2021/04/04 02:37:04;;;;;;;40.83;21.43;;;;;;;1.65;70.00;99263.46;1796243;77;21427;-58
2021/04/04 02:39:51;;;;;;;42.83;20.83;;;;;;;1.66;70.09;99265.21;1795427;78;21182;-57
2021/04/04 02:42:22;;;;;;;39.77;21.77;;;;;;;1.69;70.25;99266.03;1774667;78;21213;-57
2021/04/04 02:44:52;;;;;;;46.27;21.47;;;;;;;1.74;70.29;99265.48;1764722;79;21127;-57
2021/04/04 02:47:31;;;;;;;40.37;20.47;;;;;;;1.79;70.31;99266.70;1763848;79;21190;-58
2021/04/04 02:49:59;;;;;;;40.83;21.47;;;;;;;1.81;70.32;99265.77;1764044;79;21146;-56
2021/04/04 02:52:26;;;;;;;39.37;21.13;;;;;;;1.84;70.43;99263.06;1768922;80;22449;-56
2021/04/04 02:54:55;;;;;;;47.07;21.50;;;;;;;1.89;70.48;99268.26;1755284;80;21700;-57
2021/04/04 02:57:27;;;;;;;42.43;20.17;;;;;;;1.93;70.56;99263.33;1755833;80;21191;-57
2021/04/04 02:59:56;;;;;;;42.10;20.97;;;;;;;1.97;70.50;99270.75;1754335;80;21163;-57
2021/04/04 03:02:24;;;;;;;38.33;21.27;;;;;;;1.92;70.68;99271.31;1769583;79;21155;-56
2021/04/04 03:04:51;;;;;;;41.57;21.33;;;;;;;1.89;70.75;99271.79;1759528;80;21186;-58
2021/04/04 03:07:23;;;;;;;39.57;20.37;;;;;;;1.86;70.73;99264.36;1756333;80;21201;-59
2021/04/04 03:09:52;;;;;;;44.47;21.13;;;;;;;1.87;70.76;99258.16;1760415;79;21203;-57
2021/04/04 03:12:21;;;;;;;39.00;20.13;;;;;;;1.87;70.88;99264.30;1757952;80;21146;-59
2021/04/04 03:14:50;;;;;;;36.97;20.20;;;;;;;1.88;71.07;99270.48;1783144;79;21198;-59
2021/04/04 03:17:17;;;;;;;33.23;19.17;;;;;;;1.90;71.10;99267.36;1785869;79;21202;-59
2021/04/04 03:19:45;;;;;;;37.00;20.37;;;;;;;1.92;71.10;99276.17;1783991;78;21383;-57
2021/04/04 03:22:13;;;;;;;36.53;19.90;;;;;;;1.90;71.00;99273.99;1785705;79;21191;-57
2021/04/04 03:24:40;;;;;;;36.73;18.97;;;;;;;1.83;71.01;99281.22;1783145;79;21194;-58
2021/04/04 03:27:08;;;;;;;33.47;17.80;;;;;;;1.76;71.06;99280.92;1783995;79;21175;-58
2021/04/04 03:29:35;;;;;;;34.70;20.70;;;;;;;1.69;71.14;99289.04;1766935;80;21172;-56
2021/04/04 03:32:02;;;;;;;39.83;21.67;;;;;;;1.61;71.02;99287.87;1754784;80;21829;-59
2021/04/04 03:34:29;;;;;;;36.77;20.47;;;;;;;1.56;70.89;99299.45;1757090;80;21199;-55
2021/04/04 03:36:57;;;;;;;44.23;20.97;;;;;;;1.52;70.83;99306.61;1754853;80;21202;-56
2021/04/04 03:39:25;;;;;;;46.23;22.20;;;;;;;1.49;70.86;99305.33;1733679;80;21188;-56
2021/04/04 03:41:55;;;;;;;47.73;23.40;;;;;;;1.49;70.95;99305.33;1783472;78;21194;-56
2021/04/04 03:44:25;;;;;;;38.37;20.43;;;;;;;1.48;70.96;99305.78;1722415;80;22216;-56
2021/04/04 03:46:54;;;;;;;45.23;21.67;;;;;;;1.50;71.07;99299.13;1756102;80;21152;-57
2021/04/04 03:49:22;;;;;;;39.83;20.50;;;;;;;1.52;71.15;99303.96;1755975;80;21123;-58
2021/04/04 03:51:51;;;;;;;43.53;20.03;;;;;;;1.55;71.22;99309.63;1784576;79;21519;-56
2021/04/04 03:54:18;;;;;;;36.07;20.33;;;;;;;1.57;71.24;99307.38;1768225;79;21095;-56
2021/04/04 03:56:48;;;;;;;40.93;20.33;;;;;;;1.59;71.28;99303.38;1785666;79;22292;-56
2021/04/04 03:59:16;;;;;;;36.53;20.27;;;;;;;1.62;71.31;99307.28;1786034;79;20965;-55
2021/04/04 04:01:45;;;;;;;41.70;20.43;;;;;;;1.63;71.40;99309.03;1783004;79;21104;-57
2021/04/04 04:04:13;;;;;;;39.57;19.70;;;;;;;1.65;71.42;99308.56;1784580;78;21099;-58
2021/04/04 04:06:43;;;;;;;37.23;18.60;;;;;;;1.65;71.52;99310.77;1761238;79;21997;-56
2021/04/04 04:09:13;;;;;;;36.40;17.07;;;;;;;1.68;71.62;99316.02;1755554;80;21587;-57
2021/04/04 04:11:42;;;;;;;40.67;18.83;;;;;;;1.70;71.75;99312.86;1768027;80;21252;-59
2021/04/04 04:14:13;;;;;;;39.17;19.07;;;;;;;1.71;71.88;99319.92;1754716;80;21147;-56
2021/04/04 04:16:41;;;;;;;36.43;18.80;;;;;;;1.75;71.99;99323.41;1767221;80;21087;-57
2021/04/04 04:19:09;;;;;;;36.77;18.83;;;;;;;1.78;72.10;99320.70;1758698;80;21519;-55
2021/04/04 04:21:40;;;;;;;36.20;18.27;;;;;;;1.79;72.19;99327.73;1783488;79;21204;-56
2021/04/04 04:24:13;;;;;;;36.67;18.33;;;;;;;1.79;72.29;99322.42;1788912;78;21171;-56
2021/04/04 04:26:43;;;;;;;38.73;17.23;;;;;;;1.82;72.32;99327.23;1758657;80;21122;-56
2021/04/04 04:29:11;;;;;;;24.70;13.70;;;;;;;1.83;72.43;99339.59;1766582;80;21103;-58
2021/04/04 04:31:42;;;;;;;32.63;14.23;;;;;;;1.85;72.54;99347.08;1763452;80;21115;-58
2021/04/04 04:34:10;;;;;;;28.90;13.07;;;;;;;1.88;72.66;99346.13;1756969;80;21367;-59
2021/04/04 04:36:39;;;;;;;27.03;14.97;;;;;;;1.96;72.78;99344.67;1759807;80;21536;-57
2021/04/04 04:39:10;;;;;;;28.87;14.03;;;;;;;2.05;72.71;99341.80;1784438;78;21071;-58
2021/04/04 04:41:44;;;;;;;26.83;12.53;;;;;;;2.13;72.69;99346.50;1781159;79;21198;-58
2021/04/04 04:44:13;;;;;;;20.30;10.03;;;;;;;2.21;72.66;99343.27;1783115;79;21611;-57
2021/04/04 04:46:42;;;;;;;19.83;10.80;;;;;;;2.27;72.64;99347.98;1756197;80;21372;-56
2021/04/04 04:49:11;;;;;;;21.47;9.73;;;;;;;2.34;72.59;99343.86;1781985;79;21202;-57
2021/04/04 04:51:39;;;;;;;16.03;8.87;;;;;;;2.44;72.67;99347.63;1784237;79;21167;-57
2021/04/04 04:54:07;;;;;;;14.23;7.60;;;;;;;2.61;72.58;99341.48;1781016;79;21174;-58
2021/04/04 04:56:39;;;;;;;17.17;7.53;;;;;;;2.76;72.29;99338.91;1786492;79;21096;-56
2021/04/04 04:59:07;;;;;;;14.00;6.80;;;;;;;2.90;72.18;99338.13;1782241;78;22271;-57
2021/04/04 05:01:44;;;;;;;16.70;6.33;;;;;;;3.02;71.89;99343.16;1783523;79;21179;-57
2021/04/04 05:04:11;;;;;;;11.90;5.80;;;;;;;3.10;71.69;99340.30;1771121;80;21447;-56
2021/04/04 05:06:39;;;;;;;11.17;5.30;;;;;;;3.21;71.57;99342.70;1756080;80;21139;-56
2021/04/04 05:09:07;;;;;;;12.70;6.77;;;;;;;3.30;71.36;99336.70;1781772;78;21215;-57
2021/04/04 05:11:37;;;;;;;13.57;6.47;;;;;;;3.40;71.21;99347.50;1756028;79;21239;-55
2021/04/04 05:14:05;;;;;;;12.73;5.63;;;;;;;3.51;71.00;99347.69;1764067;79;21199;-56
2021/04/04 05:16:32;;;;;;;13.10;5.33;;;;;;;3.59;70.78;99343.91;1783828;79;21167;-56
2021/04/04 05:19:00;;;;;;;9.87;4.47;;;;;;;3.69;70.65;99343.21;1781217;79;22255;-57
2021/04/04 05:21:30;;;;;;;8.23;4.53;;;;;;;3.78;70.43;99346.50;1761868;79;21623;-56
2021/04/04 05:24:02;;;;;;;7.07;2.90;;;;;;;3.87;70.18;99347.16;1757362;80;22741;-57
2021/04/04 05:26:34;;;;;;;9.30;3.70;;;;;;;3.95;70.07;99350.48;1750213;80;21239;-56
2021/04/04 05:29:08;;;;;;;5.50;2.77;;;;;;;4.03;69.94;99348.02;1755093;80;21140;-57
2021/04/04 05:31:52;;;;;;;6.00;3.52;;;;;;;4.10;69.86;99351.38;1752593;80;27190;-57
2021/04/04 05:34:22;;;;;;;11.27;3.63;;;;;;;4.16;69.86;99359.22;1750524;80;21219;-57
2021/04/04 05:36:58;;;;;;;9.07;3.73;;;;;;;4.19;69.87;99359.98;1752977;80;22248;-57
2021/04/04 05:39:27;;;;;;;5.80;3.17;;;;;;;4.25;69.92;99361.62;1754221;80;21602;-56
2021/04/04 05:42:00;;;;;;;7.27;3.50;;;;;;;4.29;69.90;99364.59;1753447;80;21191;-57
2021/04/04 05:45:05;;;;;;;6.37;2.80;;;;;;;4.31;70.07;99359.22;1752196;80;21752;-57
2021/04/04 05:47:46;;;;;;;5.95;1.70;;;;;;;4.32;70.24;99361.84;1760728;79;21198;-57
2021/04/04 05:50:29;;;;;;;7.53;1.90;;;;;;;4.36;70.49;99359.48;1765856;79;21251;-56
2021/04/04 05:53:23;;;;;;;3.12;1.30;;;;;;;4.49;70.65;99365.34;1724889;79;21219;-57
2021/04/04 05:56:13;;;;;;;3.97;1.77;;;;;;;4.65;70.79;99363.09;1759839;79;21838;-57
2021/04/04 05:58:49;;;;;;;7.27;1.90;;;;;;;4.79;70.47;99368.86;1763370;79;21217;-56
2021/04/04 06:01:35;;;;;;;5.73;2.00;;;;;;;4.86;70.42;99369.08;1766832;79;21201;-56
2021/04/04 06:04:54;;;;;;;3.63;2.03;;;;;;;4.92;70.26;99369.78;1761127;79;21345;-57
2021/04/04 06:07:54;;;;;;;4.10;2.00;;;;;;;4.86;70.07;99372.62;1725071;80;21239;-57
2021/04/04 06:11:04;;;;;;;5.23;1.83;;;;;;;4.77;70.21;99377.36;1725040;81;21211;-57
2021/04/04 06:13:53;;;;;;;2.60;1.40;;;;;;;4.71;70.30;99386.42;1721021;81;21206;-57
2021/04/04 06:16:51;;;;;;;2.73;1.73;;;;;;;4.71;70.43;99387.77;1725101;81;21609;-57
2021/04/04 06:19:44;;;;;;;2.87;1.40;;;;;;;4.74;70.51;99390.34;1723881;81;21665;-56
2021/04/04 06:22:37;;;;;;;4.37;1.83;;;;;;;4.72;70.55;99393.52;1727393;80;21170;-58
2021/04/04 06:25:16;;;;;;;2.67;1.63;;;;;;;4.72;70.61;99397.52;1720094;81;21221;-58
2021/04/04 06:27:58;;;;;;;3.00;1.73;;;;;;;4.73;70.57;99401.05;1720969;81;21496;-57
2021/04/04 06:30:51;;;;;;;9.37;2.33;;;;;;;4.76;70.57;99397.84;1757075;79;21204;-58
2021/04/04 06:33:40;;;;;;;3.10;1.63;;;;;;;4.78;70.48;99399.11;1757820;79;22499;-57
2021/04/04 06:36:39;;;;;;;15.13;2.80;;;;;;;4.80;70.40;99387.94;1755437;79;21618;-57
2021/04/04 06:39:29;;;;;;;17.40;2.97;;;;;;;4.83;70.43;99401.19;1756489;79;21521;-58
2021/04/04 06:42:26;;;;;;;7.73;2.57;;;;;;;4.89;70.46;99399.20;1758007;79;21168;-58
2021/04/04 06:45:35;;;;;;;3.10;1.73;;;;;;;4.96;70.37;99394.55;1754538;79;21129;-57
2021/04/04 06:48:22;;;;;;;6.53;1.77;;;;;;;5.03;70.26;99401.43;1727149;79;22586;-57
2021/04/04 06:50:57;;;;;;;3.63;1.93;;;;;;;5.03;70.17;99404.09;1756039;79;21582;-58
2021/04/04 06:54:02;;;;;;;3.58;1.55;;;;;;;5.06;70.24;99402.67;1755697;79;21404;-57
2021/04/04 06:57:10;;;;;;;3.47;1.50;;;;;;;5.10;70.16;99406.13;1760311;79;21136;-58
2021/04/04 07:00:13;;;;;;;9.47;2.10;;;;;;;5.17;70.32;99407.22;1758344;79;21519;-57
2021/04/04 07:03:06;;;;;;;5.30;1.60;;;;;;;5.28;70.24;99410.86;1756855;79;21887;-57
2021/04/04 07:05:44;;;;;;;2.43;2.03;;;;;;;5.40;69.96;99409.59;1756024;79;21488;-58
2021/04/04 07:08:46;;;;;;;4.20;1.50;;;;;;;5.43;69.77;99414.84;1726793;80;21132;-57
2021/04/04 07:11:32;;;;;;;3.43;1.90;;;;;;;5.49;69.86;99415.52;1756848;79;21428;-58
2021/04/04 07:14:40;;;;;;;3.63;2.00;;;;;;;5.52;69.53;99417.22;1759964;79;21111;-56
2021/04/04 07:17:34;;;;;;;3.80;1.60;;;;;;;5.50;69.51;99419.93;1756414;79;21560;-57
2021/04/04 07:20:19;;;;;;;5.17;1.60;;;;;;;5.55;69.53;99424.64;1755164;79;21127;-56
2021/04/04 07:23:04;;;;;;;3.45;1.37;;;;;;;5.61;69.45;99419.09;1755923;79;21124;-58
2021/04/04 07:26:00;;;;;;;1.93;1.10;;;;;;;5.75;69.18;99417.77;1759354;79;21209;-58
2021/04/04 07:29:08;;;;;;;4.13;1.10;;;;;;;5.86;68.64;99416.49;1759005;79;21124;-56
2021/04/04 07:31:39;;;;;;;9.03;1.93;;;;;;;5.94;68.25;99420.27;1690841;83;21370;-60
2021/04/04 07:34:17;;;;;;;4.17;1.50;;;;;;;6.10;68.29;99421.93;1687414;83;21245;-58
2021/04/04 07:37:25;;;;;;;6.00;2.10;;;;;;;6.21;67.67;99417.92;1820658;75;26685;-60
2021/04/04 07:40:08;;;;;;;2.80;1.77;;;;;;;6.21;67.34;99421.09;1789088;77;20981;-58
2021/04/04 07:43:00;;;;;;;3.77;1.60;;;;;;;6.24;67.31;99418.29;1753682;80;21272;-58
2021/04/04 07:46:13;;;;;;;1.63;1.10;;;;;;;6.30;67.03;99416.72;1770831;78;21124;-58
2021/04/04 07:49:01;;;;;;;3.07;1.70;;;;;;;6.35;66.20;99420.13;1737367;80;21102;-58
2021/04/04 07:51:32;;;;;;;4.10;1.40;;;;;;;6.38;66.03;99422.70;1721538;81;20988;-57
2021/04/04 07:54:22;;;;;;;13.13;2.23;;;;;;;6.42;65.76;99423.84;1772789;80;21396;-57
2021/04/04 07:57:06;;;;;;;5.43;1.13;;;;;;;6.50;65.53;99420.02;1775627;79;21400;-57
2021/04/04 07:59:45;;;;;;;7.62;1.00;;;;;;;6.59;65.14;99418.34;1775337;79;21215;-57
2021/04/04 08:02:20;;;;;;;18.90;1.83;;;;;;;6.67;64.65;99418.92;1773818;79;21024;-58
2021/04/04 08:05:04;;;;;;;3.97;1.20;;;;;;;6.79;64.36;99414.00;1770859;80;21222;-58
2021/04/04 08:07:58;;;;;;;4.22;0.90;;;;;;;6.92;63.78;99408.16;1775602;79;21091;-60
2021/04/04 08:10:36;;;;;;;2.67;0.83;;;;;;;7.02;63.01;99410.88;1770753;80;22304;-59
2021/04/04 08:13:17;;;;;;;1.63;0.77;;;;;;;7.07;62.79;99405.74;1771685;79;21669;-59
2021/04/04 08:16:24;;;;;;;4.93;1.00;;;;;;;7.18;62.07;99403.98;1772551;80;21744;-57
2021/04/04 08:18:52;;;;;;;2.10;1.00;;;;;;;7.28;61.08;99406.70;1758357;79;21554;-60
2021/04/04 08:21:28;;;;;;;1.53;1.00;;;;;;;7.38;60.63;99401.86;1738370;81;21109;-60
2021/04/04 08:24:14;;;;;;;1.30;0.90;;;;;;;7.44;60.38;99403.81;1721438;81;22277;-60
2021/04/04 08:27:06;;;;;;;1.57;0.80;;;;;;;7.53;60.11;99391.84;1706293;82;21000;-61
2021/04/04 08:30:00;;;;;;;1.87;1.00;;;;;;;7.69;60.62;99392.94;1776243;79;21388;-63
2021/04/04 08:32:44;;;;;;;6.13;1.00;;;;;;;7.86;59.92;99386.86;1774188;80;21320;-59
2021/04/04 08:35:14;;;;;;;2.13;0.90;;;;;;;7.93;58.58;99389.67;1770995;80;21601;-61
2021/04/04 08:37:46;;;;;;;2.23;1.33;;;;;;;7.93;57.63;99391.89;1770425;80;20976;-60
2021/04/04 08:40:15;;;;;;;1.83;1.13;;;;;;;7.89;57.99;99385.41;1774661;80;21135;-63
2021/04/04 08:42:42;;;;;;;1.70;1.00;;;;;;;7.88;57.60;99378.30;1769746;79;21637;-62
2021/04/04 08:45:24;;;;;;;0.87;0.77;;;;;;;7.85;57.55;99377.95;1750001;80;21222;-61
2021/04/04 08:47:51;;;;;;;3.13;1.00;;;;;;;7.87;57.65;99387.27;1771498;80;21103;-60
2021/04/04 08:50:19;;;;;;;1.60;1.00;;;;;;;7.89;57.62;99384.94;1770581;80;21044;-62
2021/04/04 08:52:58;;;;;;;1.30;0.80;;;;;;;7.93;57.36;99385.19;1743679;81;21696;-60
2021/04/04 08:55:29;;;;;;;2.53;0.90;;;;;;;7.93;57.37;99385.66;1724380;82;21099;-60
2021/04/04 08:58:01;;;;;;;2.63;1.47;;;;;;;7.94;57.55;99387.41;1726269;82;21739;-62
2021/04/04 09:00:30;;;;;;;1.67;1.10;;;;;;;7.96;57.54;99385.07;1731261;82;21118;-62
2021/04/04 09:03:18;;;;;;;1.93;1.27;;;;;;;7.97;57.08;99387.28;1732480;81;22280;-61
2021/04/04 09:05:45;;;;;;;11.30;1.00;;;;;;;7.95;56.54;99381.11;1732905;82;21234;-62
2021/04/04 09:08:15;;;;;;;8.33;1.30;;;;;;;7.88;56.36;99380.52;1728710;82;21170;-62
2021/04/04 09:10:44;;;;;;;11.73;1.67;;;;;;;7.82;56.22;99383.94;1744762;80;22099;-59
2021/04/04 09:13:17;;;;;;;5.20;1.20;;;;;;;7.79;56.63;99382.25;1707768;82;21241;-60
2021/04/04 09:15:55;;;;;;;3.80;1.50;;;;;;;7.76;56.93;99388.19;1770431;79;21189;-59
2021/04/04 09:18:26;;;;;;;2.17;1.00;;;;;;;7.72;57.00;99393.29;1773794;80;21210;-62
2021/04/04 09:21:07;;;;;;;1.73;1.10;;;;;;;7.68;57.28;99392.53;1771733;80;21170;-62
2021/04/04 09:23:36;;;;;;;1.87;0.90;;;;;;;7.65;57.58;99395.37;1769079;79;21103;-60
2021/04/04 09:26:07;;;;;;;2.27;1.00;;;;;;;7.64;58.12;99398.10;1749554;80;21194;-59
2021/04/04 09:28:41;;;;;;;2.83;1.50;;;;;;;7.58;58.96;99397.87;1774213;79;21241;-60
2021/04/04 09:31:22;;;;;;;2.13;1.10;;;;;;;7.48;59.55;99401.89;1773791;80;21133;-58
2021/04/04 09:34:13;;;;;;;1.23;1.00;;;;;;;7.38;60.00;99404.07;1752745;80;21123;-61
2021/04/04 09:36:47;;;;;;;6.40;1.33;;;;;;;7.28;60.19;99397.80;1769206;79;21111;-59
2021/04/04 09:39:22;;;;;;;1.73;1.20;;;;;;;7.17;60.13;99401.78;1764052;79;21187;-59
2021/04/04 09:41:49;;;;;;;1.50;1.23;;;;;;;7.07;60.14;99404.88;1767250;80;21682;-61
2021/04/04 09:44:17;;;;;;;1.70;1.20;;;;;;;6.94;60.40;99399.14;1740884;80;21199;-60
2021/04/04 09:46:55;;;;;;;2.40;1.60;;;;;;;6.86;60.82;99404.39;1760901;80;21226;-59
2021/04/04 09:49:44;;;;;;;1.20;1.10;;;;;;;6.77;61.21;99401.59;1764538;80;21222;-59
2021/04/04 09:52:18;;;;;;;1.30;1.10;;;;;;;6.72;62.06;99400.42;1767307;79;21555;-61
2021/04/04 09:55:10;;;;;;;1.93;1.10;;;;;;;6.75;62.67;99396.77;1768129;79;22292;-61
2021/04/04 09:57:51;;;;;;;1.22;1.00;;;;;;;6.81;63.24;99397.86;1763018;80;21146;-62
2021/04/04 10:00:33;;;;;;;3.33;0.80;;;;;;;6.90;63.47;99392.16;1767669;80;21107;-60
2021/04/04 10:03:14;;;;;;;3.07;0.90;;;;;;;7.04;63.06;99394.31;1767605;80;21495;-60
2021/04/04 10:05:46;;;;;;;1.83;1.00;;;;;;;7.15;62.74;99390.72;1763368;79;21099;-59
2021/04/04 10:08:23;;;;;;;2.10;1.23;;;;;;;7.30;61.46;99395.94;1764905;79;21966;-63
2021/04/04 10:10:57;;;;;;;1.77;1.10;;;;;;;7.35;60.92;99389.92;1760883;79;21749;-60
2021/04/04 10:13:29;;;;;;;1.93;1.40;;;;;;;7.44;60.80;99393.09;1757523;79;21131;-63
2021/04/04 10:15:58;;;;;;;1.20;0.90;;;;;;;7.53;60.65;99396.73;1738697;80;21124;-61
2021/04/04 10:18:27;;;;;;;2.40;1.20;;;;;;;7.61;60.62;99397.75;1760022;79;21187;-59
2021/04/04 10:20:57;;;;;;;3.67;1.50;;;;;;;7.63;59.53;99387.85;1760856;79;21901;-60
2021/04/04 10:23:35;;;;;;;1.93;1.20;;;;;;;7.57;59.33;99387.62;1763891;79;21127;-60
2021/04/04 10:26:05;;;;;;;1.83;1.20;;;;;;;7.54;58.92;99384.22;1767104;79;21119;-60
2021/04/04 10:28:46;;;;;;;1.00;0.80;;;;;;;7.51;58.27;99385.67;1758407;79;21346;-60
2021/04/04 10:31:14;;;;;;;1.37;1.07;;;;;;;7.50;58.57;99382.59;1758731;79;21103;-62
2021/04/04 10:33:43;;;;;;;1.33;0.90;;;;;;;7.49;58.23;99385.73;1764444;79;21557;-62
2021/04/04 10:36:17;;;;;;;1.13;1.00;;;;;;;7.47;57.97;99392.98;1764572;79;21175;-60
2021/04/04 10:38:45;;;;;;;3.37;1.47;;;;;;;7.44;57.45;99390.88;1773547;79;21461;-61
2021/04/04 10:41:32;;;;;;;1.33;1.23;;;;;;;7.40;57.42;99390.63;1770532;79;21111;-60
2021/04/04 10:44:00;;;;;;;1.80;1.07;;;;;;;7.36;57.53;99393.01;1772589;79;21087;-60
2021/04/04 10:46:31;;;;;;;2.70;1.20;;;;;;;7.30;57.95;99399.49;1772658;79;21056;-62
2021/04/04 10:49:00;;;;;;;3.10;1.20;;;;;;;7.25;59.12;99395.23;1772878;79;21187;-61
2021/04/04 10:51:29;;;;;;;4.93;1.70;;;;;;;7.25;60.41;99404.14;1769339;79;21222;-60
2021/04/04 10:53:59;;;;;;;2.03;1.20;;;;;;;7.23;61.14;99406.00;1773568;79;21461;-59
2021/04/04 10:56:30;;;;;;;2.90;1.23;;;;;;;7.14;62.10;99408.61;1771004;79;21107;-61
2021/04/04 10:58:59;;;;;;;4.60;2.70;;;;;;;7.06;61.67;99412.02;1776628;79;21363;-62
2021/04/04 11:01:32;;;;;;;11.50;2.93;;;;;;;7.04;62.72;99410.36;1771862;79;21511;-61
2021/04/04 11:04:01;;;;;;;2.30;1.10;;;;;;;7.04;62.77;99396.98;1773318;79;21206;-59
2021/04/04 11:06:30;;;;;;;4.53;0.80;;;;;;;7.06;62.32;99392.45;1771114;79;21194;-61
2021/04/04 11:08:58;;;;;;;0.83;0.80;;;;;;;7.05;61.69;99386.69;1774532;79;21138;-62
2021/04/04 11:11:26;;;;;;;1.60;0.90;;;;;;;7.10;62.23;99386.02;1730571;80;21501;-59
2021/04/04 11:13:54;;;;;;;2.80;0.90;;;;;;;7.17;62.62;99386.18;1743381;80;21146;-60
2021/04/04 11:16:25;;;;;;;1.20;0.70;;;;;;;7.29;62.65;99382.14;1766179;79;21114;-60
2021/04/04 11:18:55;;;;;;;0.70;0.70;;;;;;;7.38;62.98;99379.97;1723164;80;21199;-59
2021/04/04 11:21:28;;;;;;;1.00;0.70;;;;;;;7.49;62.57;99372.34;1747965;80;21214;-63
2021/04/04 11:23:57;;;;;;;0.90;0.80;;;;;;;7.62;62.94;99365.14;1767322;79;22256;-62
2021/04/04 11:26:32;;;;;;;1.23;0.70;;;;;;;7.75;62.14;99367.22;1772906;79;21190;-62
2021/04/04 11:29:19;;;;;;;0.87;0.80;;;;;;;7.90;61.19;99364.38;1772779;79;21441;-62
2021/04/04 11:31:49;;;;;;;1.20;0.88;;;;;;;8.05;61.34;99354.78;1749021;79;21202;-60
2021/04/04 11:34:34;;;;;;;1.20;0.80;;;;;;;8.21;61.91;99344.64;1772559;79;21166;-59
2021/04/04 11:37:14;;;;;;;1.40;0.83;;;;;;;8.28;59.97;99339.40;1774464;79;21377;-60
2021/04/04 11:40:18;;;;;;;1.47;0.93;;;;;;;8.27;58.48;99348.84;1770196;79;21194;-59
2021/04/04 11:42:50;;;;;;;1.57;1.07;;;;;;;8.21;57.42;99354.03;1770560;79;21191;-58
2021/04/04 11:45:35;;;;;;;16.93;1.40;;;;;;;8.13;57.60;99361.55;1771446;79;22030;-59
2021/04/04 11:48:28;;;;;;;1.12;0.90;;;;;;;8.03;57.70;99358.86;1772813;79;21421;-57
2021/04/04 11:51:19;;;;;;;3.00;1.50;;;;;;;7.87;57.81;99375.21;1771491;79;22263;-57
2021/04/04 11:53:48;;;;;;;14.13;2.13;;;;;;;7.68;58.08;99366.22;1735453;80;21541;-57
2021/04/04 11:56:44;;;;;;;1.40;1.03;;;;;;;7.50;58.40;99366.52;1757963;79;21292;-60
2021/04/04 11:59:13;;;;;;;0.93;0.83;;;;;;;7.42;58.72;99369.52;1750713;79;21117;-58
2021/04/04 12:01:41;;;;;;;2.90;1.10;;;;;;;7.35;59.09;99373.86;1756599;79;21166;-58
2021/04/04 12:07:16;;;;;;;2.27;1.77;;;;;;;7.21;59.32;99370.41;1731868;80;21166;-58
2021/04/04 12:09:46;;;;;;;3.43;1.00;;;;;;;7.20;59.00;99361.98;1732657;79;21688;-59
2021/04/04 12:12:16;;;;;;;3.20;1.93;;;;;;;7.13;59.15;99368.05;1757566;79;21209;-59
2021/04/04 12:14:50;;;;;;;3.67;2.60;;;;;;;7.07;60.03;99367.41;1754109;79;21186;-58
2021/04/04 12:17:24;;;;;;;2.27;1.70;;;;;;;7.07;60.63;99368.28;1757144;79;21765;-58
2021/04/04 12:19:53;;;;;;;5.60;1.42;;;;;;;7.05;61.17;99366.62;1759531;79;21118;-58